createdAt,value
2019-05-14T00:02:12.561Z,1.70
2019-05-14T00:04:42.642Z,1.60
2019-05-14T00:07:12.563Z,2.27
2019-05-14T00:09:43.343Z,2.00
2019-05-14T00:12:13.119Z,1.77
2019-05-14T00:14:43.972Z,1.90
2019-05-14T00:17:13.948Z,1.65
2019-05-14T00:19:43.792Z,1.85
2019-05-14T00:22:13.398Z,2.20
2019-05-14T00:24:44.232Z,1.85
2019-05-14T00:27:14.102Z,1.82
2019-05-14T00:29:43.854Z,2.20
2019-05-14T00:32:13.668Z,1.90
2019-05-14T00:34:43.601Z,2.58
2019-05-14T00:37:13.467Z,1.70
2019-05-14T00:39:43.124Z,1.75
2019-05-14T00:42:12.968Z,1.75
2019-05-14T00:44:53.682Z,1.92
2019-05-14T00:47:14.158Z,2.20
2019-05-14T00:49:43.928Z,2.02
2019-05-14T00:52:13.759Z,1.92
2019-05-14T00:54:43.548Z,1.80
2019-05-14T00:57:13.274Z,2.00
2019-05-14T00:59:43.070Z,2.08
2019-05-14T01:02:12.956Z,1.75
2019-05-14T01:04:43.013Z,1.80
2019-05-14T01:07:13.987Z,1.92
2019-05-14T01:09:43.735Z,1.57
2019-05-14T01:12:13.639Z,2.30
2019-05-14T01:14:43.545Z,1.70
2019-05-14T01:17:13.426Z,2.20
2019-05-14T01:19:43.328Z,1.52
2019-05-14T01:22:13.174Z,2.12
2019-05-14T01:24:43.091Z,1.60
2019-05-14T01:27:12.815Z,2.10
2019-05-14T01:29:42.825Z,2.12
2019-05-14T01:32:12.732Z,2.37
2019-05-14T01:34:42.660Z,2.05
2019-05-14T01:37:12.464Z,1.80
2019-05-14T01:39:42.351Z,2.10
2019-05-14T01:42:12.628Z,1.50
2019-05-14T01:44:42.466Z,1.50
2019-05-14T01:47:12.828Z,1.90
2019-05-14T01:49:42.990Z,2.00
2019-05-14T01:52:13.941Z,2.40
2019-05-14T01:54:43.801Z,1.92
2019-05-14T01:57:13.736Z,1.87
2019-05-14T01:59:43.463Z,1.72
2019-05-14T02:02:13.389Z,2.47
2019-05-14T02:04:43.062Z,2.00
2019-05-14T02:07:15.896Z,1.62
2019-05-14T02:09:44.362Z,2.02
2019-05-14T02:12:14.265Z,1.55
2019-05-14T02:14:44.131Z,1.85
2019-05-14T02:17:13.968Z,1.62
2019-05-14T02:19:43.747Z,1.52
2019-05-14T02:22:13.587Z,1.50
2019-05-14T02:24:43.424Z,1.95
2019-05-14T02:27:13.251Z,2.58
2019-05-14T02:29:43.083Z,2.22
2019-05-14T02:32:12.793Z,1.90
2019-05-14T02:34:42.611Z,1.95
2019-05-14T02:37:12.419Z,2.15
2019-05-14T02:39:42.156Z,2.22
2019-05-14T02:42:12.067Z,1.87
2019-05-14T02:44:41.951Z,2.00
2019-05-14T02:47:12.913Z,1.60
2019-05-14T02:49:42.770Z,1.82
2019-05-14T02:52:12.686Z,1.70
2019-05-14T02:54:42.311Z,2.00
2019-05-14T02:57:12.124Z,1.80
2019-05-14T02:59:41.759Z,2.22
2019-05-14T03:02:11.573Z,1.80
2019-05-14T03:04:41.469Z,2.05
2019-05-14T03:07:11.439Z,1.95
2019-05-14T03:09:41.214Z,1.95
2019-05-14T03:12:11.117Z,1.72
2019-05-14T03:14:40.740Z,2.25
2019-05-14T03:17:10.918Z,2.52
2019-05-14T03:19:41.228Z,1.82
2019-05-14T03:22:10.923Z,2.02
2019-05-14T03:24:40.797Z,1.60
2019-05-14T03:27:11.775Z,1.70
2019-05-14T03:29:41.645Z,2.20
2019-05-14T03:32:13.622Z,2.02
2019-05-14T03:34:44.067Z,2.58
2019-05-14T03:37:14.282Z,2.08
2019-05-14T03:39:44.248Z,2.20
2019-05-14T03:42:14.021Z,2.00
2019-05-14T03:44:43.978Z,2.20
2019-05-14T03:47:13.778Z,3.12
2019-05-14T03:49:44.332Z,2.27
2019-05-14T03:52:14.494Z,1.80
2019-05-14T03:54:44.464Z,1.90
2019-05-14T03:57:14.444Z,2.02
2019-05-14T03:59:45.114Z,2.05
2019-05-14T04:02:15.159Z,1.85
2019-05-14T04:04:45.058Z,1.70
2019-05-14T04:07:19.416Z,1.90
2019-05-14T04:09:49.354Z,2.50
2019-05-14T04:12:21.742Z,1.82
2019-05-14T04:17:32.429Z,1.80
2019-05-14T04:19:59.852Z,1.80
2019-05-14T04:22:31.284Z,2.00
2019-05-14T04:25:02.622Z,2.10
2019-05-14T04:27:34.741Z,2.30
2019-05-14T04:32:35.073Z,1.77
2019-05-14T04:35:09.325Z,1.90
2019-05-14T04:37:39.876Z,1.80
2019-05-14T04:40:10.130Z,2.00
2019-05-14T04:42:42.663Z,1.80
2019-05-14T04:47:42.397Z,2.17
2019-05-14T04:50:12.655Z,2.55
2019-05-14T04:52:42.387Z,2.83
2019-05-14T04:55:12.360Z,2.55
2019-05-14T04:57:42.158Z,2.45
2019-05-14T05:00:12.770Z,1.87
2019-05-14T05:02:43.761Z,2.52
2019-05-14T05:05:14.598Z,1.95
2019-05-14T05:07:44.329Z,1.82
2019-05-14T05:10:14.319Z,1.80
2019-05-14T05:12:44.223Z,1.92
2019-05-14T05:15:14.078Z,1.90
2019-05-14T05:17:51.840Z,1.70
2019-05-14T05:20:18.973Z,1.92
2019-05-14T05:22:48.584Z,1.80
2019-05-14T05:25:23.196Z,2.23
2019-05-14T05:27:56.336Z,1.75
2019-05-14T05:30:25.016Z,2.05
2019-05-14T05:32:54.912Z,2.10
2019-05-14T05:35:24.701Z,2.35
2019-05-14T05:37:55.172Z,2.42
2019-05-14T05:40:25.051Z,2.40
2019-05-14T05:42:54.827Z,2.35
2019-05-14T05:45:24.713Z,2.75
2019-05-14T05:47:58.444Z,2.42
2019-05-14T05:50:28.693Z,2.83
2019-05-14T05:52:58.737Z,2.58
2019-05-14T05:55:28.932Z,2.87
2019-05-14T05:57:58.895Z,3.33
2019-05-14T06:00:31.611Z,2.52
2019-05-14T06:03:01.506Z,2.30
2019-05-14T06:05:31.426Z,2.10
2019-05-14T06:08:02.672Z,1.95
2019-05-14T06:10:32.521Z,2.25
2019-05-14T06:13:02.714Z,2.27
2019-05-14T06:15:44.501Z,2.20
2019-05-14T06:18:15.090Z,2.17
2019-05-14T06:20:35.318Z,1.92
2019-05-14T06:23:05.084Z,2.00
2019-05-14T06:25:35.008Z,2.00
2019-05-14T06:28:04.888Z,2.00
2019-05-14T06:30:39.344Z,1.77
2019-05-14T06:33:09.375Z,2.12
2019-05-14T06:35:39.806Z,2.20
2019-05-14T06:38:09.647Z,2.12
2019-05-14T06:40:39.763Z,2.17
2019-05-14T06:43:09.487Z,2.12
2019-05-14T06:45:39.376Z,2.40
2019-05-14T06:48:09.194Z,2.42
2019-05-14T06:50:39.766Z,2.35
2019-05-14T06:53:15.160Z,2.40
2019-05-14T06:55:45.112Z,2.72
2019-05-14T06:58:14.888Z,2.20
2019-05-14T07:00:44.802Z,2.12
2019-05-14T07:03:14.555Z,2.30
2019-05-14T07:05:44.393Z,2.47
2019-05-14T07:08:14.309Z,2.17
2019-05-14T07:10:44.221Z,2.30
2019-05-14T07:13:14.050Z,1.75
2019-05-14T07:15:43.908Z,1.67
2019-05-14T07:18:13.816Z,1.90
2019-05-14T07:20:43.894Z,2.47
2019-05-14T07:23:13.746Z,2.58
2019-05-14T07:25:43.311Z,2.20
2019-05-14T07:28:13.124Z,2.05
2019-05-14T07:30:42.886Z,2.08
2019-05-14T07:33:12.817Z,2.25
2019-05-14T07:35:42.616Z,2.17
2019-05-14T07:38:12.331Z,1.57
2019-05-14T07:40:42.059Z,2.77
2019-05-14T07:43:11.775Z,2.10
2019-05-14T07:45:42.056Z,2.20
2019-05-14T07:48:11.965Z,2.47
2019-05-14T07:50:41.656Z,2.40
2019-05-14T07:53:13.239Z,2.27
2019-05-14T07:55:43.055Z,2.08
2019-05-14T07:58:12.842Z,2.20
2019-05-14T08:00:42.745Z,2.05
2019-05-14T08:03:12.747Z,2.00
2019-05-14T08:05:42.583Z,1.65
2019-05-14T08:08:12.486Z,2.10
2019-05-14T08:10:42.252Z,1.90
2019-05-14T08:13:12.020Z,1.95
2019-05-14T08:15:41.646Z,1.80
2019-05-14T08:18:11.495Z,2.20
2019-05-14T08:20:41.307Z,3.00
2019-05-14T08:23:10.986Z,3.00
2019-05-14T08:25:40.837Z,2.58
2019-05-14T08:28:21.852Z,2.45
2019-05-14T08:30:55.295Z,2.22
2019-05-14T08:33:25.559Z,2.45
2019-05-14T08:35:55.339Z,2.17
2019-05-14T08:38:25.262Z,2.42
2019-05-14T08:40:54.909Z,2.65
2019-05-14T08:43:24.675Z,2.80
2019-05-14T08:45:54.496Z,2.58
2019-05-14T08:48:24.355Z,2.20
2019-05-14T08:50:54.159Z,2.00
2019-05-14T08:53:24.013Z,2.25
2019-05-14T08:55:54.857Z,2.10
2019-05-14T08:58:24.877Z,2.17
2019-05-14T09:00:58.616Z,2.12
2019-05-14T09:03:35.797Z,1.98
2019-05-14T09:06:05.516Z,2.17
2019-05-14T09:08:35.893Z,2.30
2019-05-14T09:11:05.817Z,2.40
2019-05-14T09:13:38.089Z,2.10
2019-05-14T09:16:09.189Z,2.30
2019-05-14T09:18:38.872Z,2.25
2019-05-14T09:21:08.940Z,1.90
2019-05-14T09:23:39.820Z,2.15
2019-05-14T09:26:09.902Z,1.90
2019-05-14T09:28:39.910Z,2.08
2019-05-14T09:31:10.010Z,1.98
2019-05-14T09:33:39.740Z,2.22
2019-05-14T09:36:18.915Z,1.70
2019-05-14T09:38:42.521Z,1.85
2019-05-14T09:41:15.426Z,2.00
2019-05-14T09:43:45.120Z,1.90
2019-05-14T09:46:18.292Z,2.00
2019-05-14T09:48:48.685Z,2.10
2019-05-14T09:51:19.944Z,1.95
2019-05-14T09:53:49.739Z,1.65
2019-05-14T09:56:19.719Z,2.47
2019-05-14T09:58:49.847Z,1.85
2019-05-14T10:01:20.342Z,2.02
2019-05-14T10:03:50.225Z,2.00
2019-05-14T10:06:20.931Z,1.72
2019-05-14T10:11:21.024Z,1.90
2019-05-14T10:13:50.933Z,1.67
2019-05-14T10:16:20.930Z,1.92
2019-05-14T10:18:52.851Z,1.77
2019-05-14T10:21:22.089Z,1.97
2019-05-14T10:23:51.904Z,1.62
2019-05-14T10:26:21.563Z,1.75
2019-05-14T10:28:51.451Z,1.87
2019-05-14T10:31:21.328Z,1.87
2019-05-14T10:33:51.072Z,1.98
2019-05-14T10:36:20.789Z,2.05
2019-05-14T10:38:50.714Z,1.95
2019-05-14T10:41:20.480Z,2.10
2019-05-14T10:43:50.096Z,1.80
2019-05-14T10:46:19.871Z,1.90
2019-05-14T10:48:49.755Z,2.00
2019-05-14T10:51:19.506Z,2.00
2019-05-14T10:53:49.421Z,1.57
2019-05-14T10:56:19.774Z,1.67
2019-05-14T10:58:50.624Z,1.72
2019-05-14T11:01:22.569Z,1.75
2019-05-14T11:03:54.896Z,1.95
2019-05-14T11:06:24.781Z,2.08
2019-05-14T11:08:54.485Z,2.10
2019-05-14T11:11:24.446Z,2.30
2019-05-14T11:13:57.975Z,2.52
2019-05-14T11:16:41.455Z,1.92
2019-05-14T11:19:09.646Z,2.10
2019-05-14T11:21:39.609Z,2.17
2019-05-14T11:24:09.757Z,2.05
2019-05-14T11:26:39.563Z,1.90
2019-05-14T11:29:09.397Z,2.45
2019-05-14T11:31:39.386Z,2.35
2019-05-14T11:34:09.172Z,2.22
2019-05-14T11:36:40.114Z,2.00
2019-05-14T11:39:10.022Z,2.30
2019-05-14T11:41:41.941Z,2.17
2019-05-14T11:44:11.789Z,1.80
2019-05-14T11:46:51.399Z,1.92
2019-05-14T11:49:19.363Z,1.90
2019-05-14T11:52:04.066Z,2.17
2019-05-14T11:54:23.046Z,2.00
2019-05-14T11:56:52.005Z,2.20
2019-05-14T11:59:21.807Z,2.20
2019-05-14T12:01:54.827Z,2.27
2019-05-14T12:04:23.080Z,2.05
2019-05-14T12:06:52.847Z,2.05
2019-05-14T12:09:22.724Z,2.45
2019-05-14T12:11:52.460Z,2.12
2019-05-14T12:14:22.200Z,2.33
2019-05-14T12:16:52.030Z,2.02
2019-05-14T12:19:21.904Z,2.35
2019-05-14T12:22:06.301Z,2.50
2019-05-14T12:24:24.061Z,2.15
2019-05-14T12:26:53.767Z,2.25
2019-05-14T12:29:23.556Z,2.05
2019-05-14T12:31:53.420Z,2.47
2019-05-14T12:34:23.710Z,2.08
2019-05-14T12:36:53.485Z,1.98
2019-05-14T12:39:23.391Z,1.95
2019-05-14T12:41:53.051Z,2.05
2019-05-14T12:44:22.752Z,2.20
2019-05-14T12:46:52.601Z,2.27
2019-05-14T12:49:22.420Z,2.30
2019-05-14T12:51:52.260Z,2.00
2019-05-14T12:54:23.268Z,2.10
2019-05-14T12:56:54.194Z,1.80
2019-05-14T12:59:23.795Z,2.20
2019-05-14T13:01:53.516Z,1.80
2019-05-14T13:04:23.201Z,1.70
2019-05-14T13:06:53.037Z,2.05
2019-05-14T13:09:22.881Z,2.22
2019-05-14T13:11:52.623Z,2.00
2019-05-14T13:14:22.408Z,1.98
2019-05-14T13:16:54.560Z,2.47
2019-05-14T13:19:25.294Z,2.95
2019-05-14T13:22:09.883Z,2.25
2019-05-14T13:24:28.637Z,2.40
2019-05-14T13:26:58.786Z,2.57
2019-05-14T13:29:29.137Z,2.05
2019-05-14T13:31:59.325Z,2.40
2019-05-14T13:34:29.348Z,2.33
2019-05-14T13:36:59.794Z,2.12
2019-05-14T13:39:30.779Z,2.22
2019-05-14T13:42:00.769Z,2.08
2019-05-14T13:44:30.697Z,2.10
2019-05-14T13:47:00.473Z,2.40
2019-05-14T13:49:30.552Z,2.90
2019-05-14T13:52:00.464Z,2.70
2019-05-14T13:54:31.874Z,2.90
2019-05-14T13:57:01.828Z,2.58
2019-05-14T13:59:31.686Z,2.92
2019-05-14T14:02:01.522Z,2.52
2019-05-14T14:04:31.410Z,2.67
2019-05-14T14:07:03.314Z,2.60
2019-05-14T14:09:33.207Z,2.30
2019-05-14T14:12:03.023Z,2.30
2019-05-14T14:14:32.942Z,2.25
2019-05-14T14:17:02.780Z,2.45
2019-05-14T14:19:32.588Z,2.20
2019-05-14T14:22:02.509Z,2.40
2019-05-14T14:24:32.412Z,2.00
2019-05-14T14:27:03.272Z,2.20
2019-05-14T14:29:33.260Z,2.33
2019-05-14T14:32:03.128Z,2.00
2019-05-14T14:34:33.007Z,2.08
2019-05-14T14:37:02.834Z,2.25
2019-05-14T14:39:32.939Z,2.47
2019-05-14T14:42:02.810Z,2.05
2019-05-14T14:44:32.622Z,2.30
2019-05-14T14:47:02.450Z,2.27
2019-05-14T14:49:32.189Z,2.00
2019-05-14T14:52:02.019Z,2.70
2019-05-14T14:54:31.681Z,2.90
2019-05-14T14:57:01.566Z,2.30
2019-05-14T14:59:31.372Z,2.30
2019-05-14T15:02:01.229Z,2.40
2019-05-14T15:04:31.068Z,2.33
2019-05-14T15:07:00.910Z,2.25
2019-05-14T15:09:30.808Z,2.15
2019-05-14T15:12:00.587Z,2.17
2019-05-14T15:14:30.451Z,2.08
2019-05-14T15:17:00.205Z,2.60
2019-05-14T15:19:30.054Z,2.02
2019-05-14T15:22:00.882Z,2.67
2019-05-14T15:24:30.790Z,1.95
2019-05-14T15:27:07.898Z,1.70
2019-05-14T15:29:31.964Z,2.40
2019-05-14T15:32:01.701Z,2.30
2019-05-14T15:34:31.403Z,2.20
2019-05-14T15:37:01.154Z,2.35
2019-05-14T15:39:30.968Z,2.33
2019-05-14T15:42:05.238Z,2.05
2019-05-14T15:44:47.634Z,2.22
2019-05-14T15:47:03.916Z,2.02
2019-05-14T15:49:33.753Z,2.15
2019-05-14T15:52:03.632Z,8.78
2019-05-14T15:54:42.219Z,24.60
2019-05-14T15:57:05.032Z,29.52
2019-05-14T15:59:34.927Z,13.80
2019-05-14T16:02:04.849Z,9.93
2019-05-14T16:04:34.720Z,8.90
2019-05-14T16:07:04.548Z,2.30
2019-05-14T16:09:34.417Z,1.60
2019-05-14T16:12:04.293Z,1.40
2019-05-14T16:14:34.193Z,1.47
2019-05-14T16:17:04.009Z,1.70
2019-05-14T16:19:33.642Z,1.72
2019-05-14T16:22:03.606Z,1.90
2019-05-14T16:24:33.372Z,2.00
2019-05-14T16:27:03.911Z,2.02
2019-05-14T16:29:44.295Z,2.02
2019-05-14T16:32:08.513Z,2.00
2019-05-14T16:34:40.838Z,1.85
2019-05-14T16:37:11.177Z,2.20
2019-05-14T16:39:41.046Z,1.40
2019-05-14T16:42:10.833Z,1.72
2019-05-14T16:44:40.648Z,1.30
2019-05-14T16:47:10.543Z,1.25
2019-05-14T16:49:40.334Z,1.77
2019-05-14T16:52:10.379Z,1.40
2019-05-14T16:54:41.258Z,1.25
2019-05-14T16:57:11.316Z,1.57
2019-05-14T16:59:41.200Z,1.22
2019-05-14T17:02:11.205Z,1.30
2019-05-14T17:04:41.002Z,1.47
2019-05-14T17:07:11.209Z,1.40
2019-05-14T17:09:40.986Z,1.10
2019-05-14T17:12:10.870Z,1.30
2019-05-14T17:14:40.728Z,1.30
2019-05-14T17:17:10.668Z,1.22
2019-05-14T17:19:40.438Z,1.37
2019-05-14T17:22:24.488Z,1.75
2019-05-14T17:24:41.715Z,1.40
2019-05-14T17:27:11.558Z,1.37
2019-05-14T17:29:41.438Z,1.32
2019-05-14T17:32:11.400Z,1.40
2019-05-14T17:34:41.089Z,1.27
2019-05-14T17:37:10.993Z,1.37
2019-05-14T17:39:40.865Z,1.40
2019-05-14T17:42:11.714Z,1.50
2019-05-14T17:44:41.855Z,1.40
2019-05-14T17:47:11.664Z,1.20
2019-05-14T17:49:41.447Z,1.95
2019-05-14T17:52:11.253Z,1.60
2019-05-14T17:54:42.060Z,1.80
2019-05-14T17:57:12.041Z,1.70
2019-05-14T17:59:41.820Z,1.30
2019-05-14T18:02:11.687Z,1.50
2019-05-14T18:04:41.498Z,1.50
2019-05-14T18:07:11.276Z,1.60
2019-05-14T18:09:40.961Z,1.95
2019-05-14T18:12:10.956Z,2.00
2019-05-14T18:14:40.764Z,1.70
2019-05-14T18:17:10.536Z,1.50
2019-05-14T18:19:40.521Z,1.65
2019-05-14T18:22:10.444Z,1.65
2019-05-14T18:24:40.242Z,1.75
2019-05-14T18:27:10.271Z,1.55
2019-05-14T18:29:41.523Z,1.35
2019-05-14T18:32:11.427Z,1.60
2019-05-14T18:34:41.227Z,1.82
2019-05-14T18:37:13.812Z,1.60
2019-05-14T18:39:42.563Z,1.67
2019-05-14T18:42:12.416Z,1.40
2019-05-14T18:44:42.305Z,1.40
2019-05-14T18:47:12.102Z,1.70
2019-05-14T18:49:41.957Z,1.62
2019-05-14T18:52:11.980Z,1.75
2019-05-14T18:54:41.856Z,1.57
2019-05-14T18:57:12.241Z,1.47
2019-05-14T18:59:42.268Z,1.40
2019-05-14T19:02:12.152Z,1.67
2019-05-14T19:04:41.914Z,1.95
2019-05-14T19:07:11.840Z,1.67
2019-05-14T19:09:41.613Z,1.00
2019-05-14T19:12:11.584Z,1.65
2019-05-14T19:14:41.358Z,1.70
2019-05-14T19:17:11.464Z,1.17
2019-05-14T19:19:41.360Z,1.30
2019-05-14T19:22:11.339Z,1.42
2019-05-14T19:24:41.236Z,1.92
2019-05-14T19:27:11.081Z,1.42
2019-05-14T19:29:40.931Z,1.42
2019-05-14T19:32:10.932Z,1.30
2019-05-14T19:34:41.239Z,1.35
2019-05-14T19:37:11.067Z,1.42
2019-05-14T19:39:40.842Z,1.40
2019-05-14T19:42:10.730Z,1.50
2019-05-14T19:44:40.581Z,1.80
2019-05-14T19:47:10.404Z,1.40
2019-05-14T19:49:40.114Z,1.30
2019-05-14T19:52:09.987Z,1.47
2019-05-14T19:54:39.864Z,1.40
2019-05-14T19:57:10.124Z,1.42
2019-05-14T19:59:41.092Z,1.55
2019-05-14T20:02:11.039Z,1.60
2019-05-14T20:04:40.917Z,1.00
2019-05-14T20:07:10.786Z,1.32
2019-05-14T20:09:40.583Z,1.65
2019-05-14T20:12:10.393Z,1.25
2019-05-14T20:14:40.343Z,1.40
2019-05-14T20:17:10.248Z,1.50
2019-05-14T20:19:40.039Z,1.95
2019-05-14T20:22:10.020Z,1.50
2019-05-14T20:24:41.593Z,1.37
2019-05-14T20:27:12.208Z,1.47
2019-05-14T20:29:42.545Z,1.50
2019-05-14T20:32:12.410Z,1.57
2019-05-14T20:34:42.281Z,1.60
2019-05-14T20:37:12.082Z,1.55
2019-05-14T20:39:42.000Z,1.50
2019-05-14T20:42:11.744Z,2.30
2019-05-14T20:44:41.425Z,1.80
2019-05-14T20:47:11.254Z,1.42
2019-05-14T20:49:41.017Z,1.67
2019-05-14T20:52:10.781Z,1.47
2019-05-14T20:54:40.621Z,1.70
2019-05-14T20:57:23.297Z,1.80
2019-05-14T20:59:41.775Z,1.60
2019-05-14T21:02:11.677Z,1.70
2019-05-14T21:04:41.416Z,1.62
2019-05-14T21:07:11.367Z,1.50
2019-05-14T21:09:41.124Z,1.70
2019-05-14T21:12:10.930Z,1.75
2019-05-14T21:14:41.429Z,1.80
2019-05-14T21:17:11.480Z,1.70
2019-05-14T21:19:41.283Z,1.75
2019-05-14T21:22:12.090Z,1.60
2019-05-14T21:24:41.867Z,1.50
2019-05-14T21:27:11.646Z,2.00
2019-05-14T21:29:41.483Z,1.55
2019-05-14T21:32:11.397Z,2.20
2019-05-14T21:34:41.247Z,2.30
2019-05-14T21:37:11.154Z,2.15
2019-05-14T21:39:41.173Z,2.17
2019-05-14T21:42:11.137Z,2.15
2019-05-14T21:44:40.944Z,2.50
2019-05-14T21:47:10.843Z,2.17
2019-05-14T21:49:40.646Z,1.87
2019-05-14T21:52:10.453Z,2.00
2019-05-14T21:54:40.281Z,2.10
2019-05-14T21:57:11.902Z,2.52
2019-05-14T21:59:41.359Z,1.67
2019-05-14T22:02:21.676Z,2.02
2019-05-14T22:07:13.547Z,1.85
2019-05-14T22:09:43.439Z,2.00
2019-05-14T22:12:13.331Z,1.98
2019-05-14T22:14:43.138Z,1.92
2019-05-14T22:17:13.015Z,1.62
2019-05-14T22:19:42.868Z,2.50
2019-05-14T22:22:12.728Z,2.95
2019-05-14T22:24:42.517Z,2.33
2019-05-14T22:27:12.432Z,1.95
2019-05-14T22:29:42.236Z,1.90
2019-05-14T22:32:12.147Z,2.17
2019-05-14T22:34:41.768Z,2.08
2019-05-14T22:37:11.550Z,1.60
2019-05-14T22:39:41.424Z,1.60
2019-05-14T22:42:11.291Z,1.50
2019-05-14T22:44:41.076Z,1.40
2019-05-14T22:47:10.928Z,1.47
2019-05-14T22:49:40.631Z,1.50
2019-05-14T22:52:10.581Z,2.27
2019-05-14T22:54:41.402Z,1.65
2019-05-14T22:57:11.258Z,1.72
2019-05-14T22:59:41.053Z,1.50
2019-05-14T23:02:11.391Z,1.95
2019-05-14T23:04:41.478Z,1.70
2019-05-14T23:07:11.336Z,2.60
2019-05-14T23:09:41.215Z,2.33
2019-05-14T23:12:12.187Z,1.65
2019-05-14T23:14:42.228Z,2.30
2019-05-14T23:17:12.032Z,2.35
2019-05-14T23:19:41.820Z,2.60
2019-05-14T23:22:11.786Z,2.98
2019-05-14T23:24:41.571Z,2.75
2019-05-14T23:27:11.382Z,2.35
2019-05-14T23:29:40.953Z,2.70
2019-05-14T23:32:10.756Z,2.22
2019-05-14T23:34:40.555Z,2.20
2019-05-14T23:37:10.420Z,1.55
2019-05-14T23:39:40.391Z,2.15
2019-05-14T23:42:11.055Z,2.55
2019-05-14T23:44:40.888Z,2.72
2019-05-14T23:47:10.779Z,2.58
2019-05-14T23:49:40.488Z,1.80
2019-05-14T23:52:10.256Z,2.40
2019-05-14T23:54:40.040Z,2.10
2019-05-14T23:57:09.746Z,2.35
2019-05-14T23:59:39.720Z,2.15
